createdAt,value
2019-01-28T00:02:03.808Z,98401.90
2019-01-28T00:04:31.334Z,98402.41
2019-01-28T00:06:58.855Z,98403.38
2019-01-28T00:09:26.337Z,98410.67
2019-01-28T00:11:53.861Z,98411.41
2019-01-28T00:14:21.353Z,98411.52
2019-01-28T00:16:48.903Z,98407.45
2019-01-28T00:19:16.390Z,98407.33
2019-01-28T00:21:43.902Z,98407.33
2019-01-28T00:24:11.483Z,98405.97
2019-01-28T00:26:39.004Z,98409.70
2019-01-28T00:29:06.520Z,98412.95
2019-01-28T00:31:34.047Z,98423.81
2019-01-28T00:34:01.539Z,98422.00
2019-01-28T00:36:29.058Z,98422.45
2019-01-28T00:38:56.589Z,98419.40
2019-01-28T00:41:24.103Z,98421.41
2019-01-28T00:43:51.611Z,98429.05
2019-01-28T00:46:19.136Z,98430.61
2019-01-28T00:48:46.675Z,98432.27
2019-01-28T00:51:14.162Z,98437.00
2019-01-28T00:53:41.697Z,98435.84
2019-01-28T00:56:09.191Z,98438.75
2019-01-28T00:58:36.726Z,98440.11
2019-01-28T01:01:04.230Z,98442.28
2019-01-28T01:03:31.753Z,98448.95
2019-01-28T01:05:59.251Z,98453.69
2019-01-28T01:08:26.777Z,98458.46
2019-01-28T01:10:54.283Z,98456.41
2019-01-28T01:13:21.791Z,98453.03
2019-01-28T01:15:49.350Z,98457.11
2019-01-28T01:18:16.856Z,98450.12
2019-01-28T01:20:44.398Z,98453.69
2019-01-28T01:23:11.893Z,98453.22
2019-01-28T01:25:39.425Z,98447.59
2019-01-28T01:28:06.929Z,98448.30
2019-01-28T01:30:34.437Z,98443.84
2019-01-28T01:33:01.948Z,98442.83
2019-01-28T01:35:29.467Z,98434.02
2019-01-28T01:37:57.003Z,98435.38
2019-01-28T01:40:24.489Z,98428.91
2019-01-28T01:42:52.110Z,98426.92
2019-01-28T01:45:19.612Z,98432.55
2019-01-28T01:47:47.112Z,98436.73
2019-01-28T01:50:14.625Z,98424.20
2019-01-28T01:52:42.152Z,98425.22
2019-01-28T01:55:10.929Z,98437.44
2019-01-28T01:57:38.468Z,98432.94
2019-01-28T02:00:07.616Z,98442.36
2019-01-28T02:02:35.135Z,98438.80
2019-01-28T02:05:02.666Z,98436.93
2019-01-28T02:07:30.184Z,98432.67
2019-01-28T02:09:57.698Z,98435.77
2019-01-28T02:12:25.202Z,98427.94
2019-01-28T02:14:52.728Z,98429.83
2019-01-28T02:17:20.218Z,98431.38
2019-01-28T02:19:47.766Z,98437.13
2019-01-28T02:22:15.266Z,98436.63
2019-01-28T02:24:42.766Z,98432.20
2019-01-28T02:27:10.301Z,98429.30
2019-01-28T02:29:37.819Z,98428.98
2019-01-28T02:32:05.344Z,98423.55
2019-01-28T02:34:32.868Z,98419.16
2019-01-28T02:37:00.361Z,98421.03
2019-01-28T02:39:27.858Z,98421.34
2019-01-28T02:41:55.373Z,98425.30
2019-01-28T02:44:22.876Z,98413.08
2019-01-28T02:46:50.390Z,98412.03
2019-01-28T02:49:17.896Z,98409.32
2019-01-28T02:51:45.405Z,98414.75
2019-01-28T02:54:12.920Z,98412.03
2019-01-28T02:56:40.455Z,98409.00
2019-01-28T02:59:07.939Z,98422.58
2019-01-28T03:01:35.448Z,98416.64
2019-01-28T03:04:02.968Z,98412.23
2019-01-28T03:06:30.488Z,98406.60
2019-01-28T03:08:58.026Z,98404.62
2019-01-28T03:11:25.570Z,98400.75
2019-01-28T03:13:53.112Z,98405.24
2019-01-28T03:16:20.617Z,98403.77
2019-01-28T03:18:48.123Z,98406.69
2019-01-28T03:21:15.652Z,98407.73
2019-01-28T03:23:43.168Z,98408.23
2019-01-28T03:26:10.681Z,98402.30
2019-01-28T03:28:38.197Z,98406.69
2019-01-28T03:31:06.637Z,98405.64
2019-01-28T03:33:34.132Z,98403.45
2019-01-28T03:36:01.652Z,98404.16
2019-01-28T03:38:29.144Z,98397.88
2019-01-28T03:40:56.660Z,98401.56
2019-01-28T03:43:24.156Z,98396.52
2019-01-28T03:45:51.672Z,98397.88
2019-01-28T03:48:19.165Z,98385.66
2019-01-28T03:50:46.688Z,98389.55
2019-01-28T03:53:14.612Z,98389.03
2019-01-28T03:55:42.142Z,98388.53
2019-01-28T03:58:09.652Z,98391.75
2019-01-28T04:00:37.184Z,98395.63
2019-01-28T04:03:04.694Z,98393.95
2019-01-28T04:05:32.212Z,98385.66
2019-01-28T04:07:59.747Z,98397.38
2019-01-28T04:10:27.263Z,98395.31
2019-01-28T04:12:54.778Z,98395.82
2019-01-28T04:15:23.393Z,98395.51
2019-01-28T04:17:50.926Z,98396.87
2019-01-28T04:20:19.899Z,98391.44
2019-01-28T04:22:47.457Z,98393.61
2019-01-28T04:25:14.964Z,98400.20
2019-01-28T04:27:42.450Z,98395.51
2019-01-28T04:30:14.318Z,98394.97
2019-01-28T04:32:41.811Z,98388.92
2019-01-28T04:35:09.340Z,98395.51
2019-01-28T04:37:36.837Z,98394.47
2019-01-28T04:40:08.941Z,98395.82
2019-01-28T04:42:36.461Z,98388.53
2019-01-28T04:45:05.657Z,98394.66
2019-01-28T04:47:33.211Z,98392.41
2019-01-28T04:50:00.750Z,98390.90
2019-01-28T04:52:28.261Z,98393.11
2019-01-28T04:54:55.765Z,98390.70
2019-01-28T04:57:23.267Z,98393.95
2019-01-28T04:59:50.783Z,98392.60
2019-01-28T05:02:18.282Z,98390.51
2019-01-28T05:04:45.820Z,98384.66
2019-01-28T05:07:13.301Z,98386.01
2019-01-28T05:09:40.849Z,98380.94
2019-01-28T05:12:08.327Z,98378.88
2019-01-28T05:14:35.859Z,98382.64
2019-01-28T05:17:03.378Z,98382.13
2019-01-28T05:19:30.921Z,98377.20
2019-01-28T05:21:58.457Z,98376.70
2019-01-28T05:24:26.065Z,98375.85
2019-01-28T05:26:53.577Z,98372.63
2019-01-28T05:29:21.087Z,98373.45
2019-01-28T05:31:48.636Z,98377.52
2019-01-28T05:34:16.163Z,98374.30
2019-01-28T05:36:43.669Z,98373.98
2019-01-28T05:39:11.186Z,98366.39
2019-01-28T05:41:38.695Z,98360.27
2019-01-28T05:44:06.187Z,98358.20
2019-01-28T05:46:33.704Z,98368.02
2019-01-28T05:49:01.289Z,98365.19
2019-01-28T05:51:28.817Z,98364.34
2019-01-28T05:53:56.319Z,98362.28
2019-01-28T05:56:23.829Z,98360.41
2019-01-28T05:58:51.335Z,98357.35
2019-01-28T06:01:18.833Z,98357.63
2019-01-28T06:03:46.345Z,98362.28
2019-01-28T06:06:13.852Z,98363.63
2019-01-28T06:08:41.359Z,98359.56
2019-01-28T06:11:08.881Z,98371.27
2019-01-28T06:13:36.391Z,98352.97
2019-01-28T06:16:03.913Z,98354.83
2019-01-28T06:18:31.411Z,98362.93
2019-01-28T06:20:58.929Z,98357.86
2019-01-28T06:23:26.445Z,98352.13
2019-01-28T06:25:53.959Z,98358.20
2019-01-28T06:28:21.475Z,98361.23
2019-01-28T06:30:48.984Z,98354.13
2019-01-28T06:33:16.497Z,98347.66
2019-01-28T06:35:44.014Z,98357.86
2019-01-28T06:38:11.553Z,98352.13
2019-01-28T06:40:39.111Z,98347.34
2019-01-28T06:43:06.606Z,98350.25
2019-01-28T06:45:34.132Z,98352.77
2019-01-28T06:48:01.642Z,98358.71
2019-01-28T06:50:29.208Z,98349.72
2019-01-28T06:52:56.747Z,98352.43
2019-01-28T06:55:24.252Z,98352.97
2019-01-28T06:57:51.753Z,98353.78
2019-01-28T07:00:24.084Z,98352.77
2019-01-28T07:02:51.576Z,98358.01
2019-01-28T07:05:19.068Z,98350.38
2019-01-28T07:07:46.585Z,98355.61
2019-01-28T07:10:14.075Z,98360.27
2019-01-28T07:12:41.592Z,98356.84
2019-01-28T07:15:10.150Z,98353.63
2019-01-28T07:17:37.689Z,98350.72
2019-01-28T07:20:06.973Z,98357.50
2019-01-28T07:22:34.506Z,98359.67
2019-01-28T07:25:02.018Z,98356.66
2019-01-28T07:27:29.529Z,98355.95
2019-01-28T07:29:57.021Z,98353.42
2019-01-28T07:32:24.550Z,98358.86
2019-01-28T07:34:52.068Z,98368.02
2019-01-28T07:37:19.584Z,98364.65
2019-01-28T07:39:47.094Z,98365.30
2019-01-28T07:42:14.612Z,98364.80
2019-01-28T07:44:42.111Z,98362.59
2019-01-28T07:47:09.639Z,98367.00
2019-01-28T07:49:37.170Z,98373.79
2019-01-28T07:52:04.692Z,98367.82
2019-01-28T07:54:32.220Z,98370.53
2019-01-28T07:56:59.716Z,98375.00
2019-01-28T07:59:27.226Z,98368.41
2019-01-28T08:01:54.737Z,98373.33
2019-01-28T08:04:22.251Z,98372.36
2019-01-28T08:06:59.195Z,98371.00
2019-01-28T08:09:19.024Z,98373.18
2019-01-28T08:11:46.530Z,98374.54
2019-01-28T08:14:14.055Z,98377.06
2019-01-28T08:16:41.562Z,98381.98
2019-01-28T08:19:09.072Z,98380.94
2019-01-28T08:21:36.576Z,98382.13
2019-01-28T08:24:04.109Z,98376.16
2019-01-28T08:26:31.623Z,98372.75
2019-01-28T08:28:59.139Z,98373.25
2019-01-28T08:31:26.674Z,98369.52
2019-01-28T08:33:54.196Z,98367.82
2019-01-28T08:36:21.728Z,98372.55
2019-01-28T08:38:49.280Z,98369.95
2019-01-28T08:41:16.793Z,98368.28
2019-01-28T08:43:44.306Z,98368.59
2019-01-28T08:46:11.804Z,98372.66
2019-01-28T08:48:39.306Z,98368.39
2019-01-28T08:51:06.808Z,98371.30
2019-01-28T08:53:34.338Z,98369.95
2019-01-28T08:56:01.852Z,98369.64
2019-01-28T08:58:29.375Z,98373.52
2019-01-28T09:00:56.878Z,98374.88
2019-01-28T09:03:24.400Z,98369.95
2019-01-28T09:05:51.900Z,98364.72
2019-01-28T09:08:19.428Z,98365.88
2019-01-28T09:10:46.930Z,98376.34
2019-01-28T09:13:14.436Z,98367.89
2019-01-28T09:15:42.216Z,98374.98
2019-01-28T09:18:09.820Z,98370.91
2019-01-28T09:20:37.316Z,98369.56
2019-01-28T09:23:04.850Z,98368.86
2019-01-28T09:25:32.370Z,98374.94
2019-01-28T09:27:59.896Z,98374.40
2019-01-28T09:30:28.366Z,98376.61
2019-01-28T09:32:55.885Z,98376.61
2019-01-28T09:35:23.429Z,98367.10
2019-01-28T09:37:50.995Z,98374.09
2019-01-28T09:40:20.144Z,98373.58
2019-01-28T09:42:47.646Z,98380.68
2019-01-28T09:45:19.059Z,98376.92
2019-01-28T09:47:46.550Z,98385.72
2019-01-28T09:50:14.658Z,98383.40
2019-01-28T09:52:42.160Z,98388.83
2019-01-28T09:55:10.870Z,98385.45
2019-01-28T09:57:38.407Z,98386.96
2019-01-28T10:00:08.370Z,98396.47
2019-01-28T10:02:35.905Z,98398.64
2019-01-28T10:05:04.588Z,98393.21
2019-01-28T10:07:32.087Z,98404.92
2019-01-28T10:09:59.639Z,98397.48
2019-01-28T10:12:27.167Z,98401.05
2019-01-28T10:14:54.664Z,98403.06
2019-01-28T10:17:22.186Z,98400.27
2019-01-28T10:19:49.692Z,98396.96
2019-01-28T10:22:17.221Z,98404.59
2019-01-28T10:24:44.754Z,98401.49
2019-01-28T10:27:12.259Z,98408.39
2019-01-28T10:29:39.798Z,98401.61
2019-01-28T10:32:07.309Z,98401.95
2019-01-28T10:34:34.864Z,98398.19
2019-01-28T10:37:02.364Z,98405.44
2019-01-28T10:39:29.856Z,98419.02
2019-01-28T10:41:57.382Z,98415.95
2019-01-28T10:44:24.917Z,98408.46
2019-01-28T10:46:52.409Z,98404.73
2019-01-28T10:49:19.959Z,98409.63
2019-01-28T10:51:47.481Z,98405.34
2019-01-28T10:54:14.983Z,98415.52
2019-01-28T10:56:42.511Z,98409.77
2019-01-28T10:59:10.019Z,98412.91
2019-01-28T11:01:37.511Z,98413.25
2019-01-28T11:04:05.035Z,98415.12
2019-01-28T11:06:32.567Z,98414.41
2019-01-28T11:09:00.065Z,98422.02
2019-01-28T11:11:27.611Z,98417.13
2019-01-28T11:13:55.118Z,98420.66
2019-01-28T11:16:22.649Z,98415.03
2019-01-28T11:18:57.419Z,98418.09
2019-01-28T11:21:19.427Z,98422.98
2019-01-28T11:23:47.100Z,98417.75
2019-01-28T11:26:14.740Z,98424.49
2019-01-28T11:28:42.384Z,98424.15
2019-01-28T11:31:09.965Z,98417.36
2019-01-28T11:33:39.403Z,98425.20
2019-01-28T11:36:06.793Z,98422.59
2019-01-28T11:38:34.344Z,98430.23
2019-01-28T11:41:02.051Z,98427.66
2019-01-28T11:43:29.833Z,98418.16
2019-01-28T11:45:59.022Z,98418.77
2019-01-28T11:48:26.768Z,98420.48
2019-01-28T11:50:56.086Z,98424.75
2019-01-28T11:53:23.653Z,98426.11
2019-01-28T11:55:51.182Z,98415.86
2019-01-28T11:58:18.703Z,98423.50
2019-01-28T12:01:01.369Z,98422.14
2019-01-28T12:03:28.910Z,98423.00
2019-01-28T12:05:56.431Z,98429.98
2019-01-28T12:08:23.943Z,98443.69
2019-01-28T12:10:51.531Z,98443.17
2019-01-28T12:13:19.069Z,98442.12
2019-01-28T12:15:46.583Z,98442.64
2019-01-28T12:18:14.090Z,98449.97
2019-01-28T12:20:41.621Z,98454.67
2019-01-28T12:23:09.129Z,98465.34
2019-01-28T12:25:36.625Z,98462.97
2019-01-28T12:28:04.316Z,98471.13
2019-01-28T12:30:32.119Z,98467.66
2019-01-28T12:32:59.689Z,98480.09
2019-01-28T12:35:27.201Z,98475.82
2019-01-28T12:37:54.717Z,98478.88
2019-01-28T12:40:22.700Z,98480.75
2019-01-28T12:42:50.242Z,98477.18
2019-01-28T12:45:18.972Z,98481.80
2019-01-28T12:47:46.473Z,98480.23
2019-01-28T12:50:18.040Z,98481.91
2019-01-28T12:52:45.582Z,98482.25
2019-01-28T12:55:14.354Z,98481.71
2019-01-28T12:57:41.849Z,98489.21
2019-01-28T13:00:11.147Z,98489.80
2019-01-28T13:02:38.654Z,98499.00
2019-01-28T13:05:07.735Z,98500.05
2019-01-28T13:07:35.260Z,98500.75
2019-01-28T13:10:02.918Z,98502.42
2019-01-28T13:12:30.442Z,98510.00
2019-01-28T13:14:58.031Z,98509.69
2019-01-28T13:17:25.560Z,98512.21
2019-01-28T13:19:53.718Z,98523.94
2019-01-28T13:22:21.465Z,98523.94
2019-01-28T13:24:48.957Z,98523.28
2019-01-28T13:27:16.801Z,98518.50
2019-01-28T13:29:44.309Z,98529.56
2019-01-28T13:32:11.892Z,98530.39
2019-01-28T13:34:39.424Z,98532.13
2019-01-28T13:37:06.931Z,98534.15
2019-01-28T13:39:34.435Z,98533.84
2019-01-28T13:42:01.963Z,98537.56
2019-01-28T13:44:29.491Z,98536.72
2019-01-28T13:46:57.008Z,98543.00
2019-01-28T13:49:24.528Z,98543.51
2019-01-28T13:51:52.035Z,98543.51
2019-01-28T13:54:19.548Z,98546.77
2019-01-28T13:56:47.064Z,98551.16
2019-01-28T13:59:16.347Z,98556.08
2019-01-28T14:01:43.839Z,98554.27
2019-01-28T14:04:11.333Z,98557.30
2019-01-28T14:06:38.859Z,98566.95
2019-01-28T14:09:06.959Z,98566.10
2019-01-28T14:11:34.453Z,98574.95
2019-01-28T14:14:01.955Z,98577.67
2019-01-28T14:16:29.479Z,98582.75
2019-01-28T14:18:56.967Z,98584.55
2019-01-28T14:21:24.485Z,98590.95
2019-01-28T14:23:51.997Z,98591.80
2019-01-28T14:26:19.548Z,98595.99
2019-01-28T14:28:47.149Z,98603.13
2019-01-28T14:31:14.638Z,98606.36
2019-01-28T14:33:42.175Z,98605.85
2019-01-28T14:36:09.679Z,98617.03
2019-01-28T14:38:37.286Z,98623.44
2019-01-28T14:41:04.797Z,98616.65
2019-01-28T14:43:32.286Z,98627.33
2019-01-28T14:45:59.822Z,98627.67
2019-01-28T14:48:27.342Z,98637.54
2019-01-28T14:50:54.862Z,98643.64
2019-01-28T14:53:22.394Z,98642.63
2019-01-28T14:55:49.905Z,98649.38
2019-01-28T14:58:17.442Z,98655.66
2019-01-28T15:00:44.967Z,98657.53
2019-01-28T15:03:12.506Z,98662.27
2019-01-28T15:05:40.010Z,98664.64
2019-01-28T15:08:07.501Z,98666.66
2019-01-28T15:10:35.089Z,98669.69
2019-01-28T15:13:02.646Z,98679.94
2019-01-28T15:15:31.251Z,98681.61
2019-01-28T15:17:58.857Z,98687.05
2019-01-28T15:20:26.398Z,98697.22
2019-01-28T15:22:53.915Z,98699.55
2019-01-28T15:25:21.414Z,98705.81
2019-01-28T15:27:49.011Z,98712.80
2019-01-28T15:30:17.800Z,98717.73
2019-01-28T15:32:45.381Z,98720.26
2019-01-28T15:35:12.989Z,98723.48
2019-01-28T15:37:40.516Z,98734.33
2019-01-28T15:40:09.675Z,98722.28
2019-01-28T15:42:37.190Z,98735.14
2019-01-28T15:45:11.328Z,98750.76
2019-01-28T15:47:38.566Z,98749.40
2019-01-28T15:50:10.639Z,98759.77
2019-01-28T15:52:37.147Z,98760.94
2019-01-28T15:55:06.297Z,98772.47
2019-01-28T15:57:33.807Z,98771.62
2019-01-28T16:00:01.328Z,98780.44
2019-01-28T16:02:28.830Z,98783.66
2019-01-28T16:04:56.362Z,98783.66
2019-01-28T16:07:23.907Z,98781.80
2019-01-28T16:09:51.448Z,98789.11
2019-01-28T16:12:18.934Z,98787.87
2019-01-28T16:14:46.442Z,98796.87
2019-01-28T16:17:13.988Z,98807.56
2019-01-28T16:19:41.488Z,98810.16
2019-01-28T16:22:08.981Z,98810.80
2019-01-28T16:24:36.529Z,98817.09
2019-01-28T16:27:04.058Z,98828.63
2019-01-28T16:29:31.578Z,98832.52
2019-01-28T16:31:59.101Z,98831.97
2019-01-28T16:34:26.604Z,98833.69
2019-01-28T16:36:54.118Z,98840.48
2019-01-28T16:39:21.623Z,98841.97
2019-01-28T16:41:49.151Z,98844.38
2019-01-28T16:44:16.713Z,98847.41
2019-01-28T16:46:44.249Z,98860.16
2019-01-28T16:49:13.390Z,98864.08
2019-01-28T16:51:40.909Z,98872.73
2019-01-28T16:54:08.412Z,98877.48
2019-01-28T16:56:35.935Z,98884.98
2019-01-28T16:59:03.433Z,98892.16
2019-01-28T17:01:31.000Z,98896.94
2019-01-28T17:03:58.534Z,98894.09
2019-01-28T17:06:26.036Z,98901.58
2019-01-28T17:08:53.546Z,98910.44
2019-01-28T17:11:21.075Z,98914.20
2019-01-28T17:13:48.573Z,98918.59
2019-01-28T17:16:16.079Z,98926.63
2019-01-28T17:18:43.602Z,98925.77
2019-01-28T17:21:11.092Z,98925.77
2019-01-28T17:23:38.609Z,98930.38
2019-01-28T17:26:06.113Z,98940.41
2019-01-28T17:28:33.642Z,98941.09
2019-01-28T17:31:01.150Z,98944.00
2019-01-28T17:33:28.683Z,98951.31
2019-01-28T17:35:56.224Z,98950.99
2019-01-28T17:38:23.777Z,98955.58
2019-01-28T17:40:51.327Z,98956.11
2019-01-28T17:43:18.862Z,98959.84
2019-01-28T17:45:46.444Z,98960.38
2019-01-28T17:48:13.951Z,98965.47
2019-01-28T17:50:43.712Z,98970.40
2019-01-28T17:53:10.967Z,98970.91
2019-01-28T17:55:38.485Z,98980.61
2019-01-28T17:58:05.987Z,98990.66
2019-01-28T18:00:37.917Z,98998.95
2019-01-28T18:03:05.628Z,98997.45
2019-01-28T18:05:33.172Z,99006.79
2019-01-28T18:08:00.668Z,99015.13
2019-01-28T18:10:28.153Z,99016.14
2019-01-28T18:12:55.672Z,99019.72
2019-01-28T18:15:24.199Z,99027.87
2019-01-28T18:17:51.696Z,99040.61
2019-01-28T18:20:19.213Z,99038.75
2019-01-28T18:22:47.594Z,99047.94
2019-01-28T18:25:19.535Z,99051.67
2019-01-28T18:27:47.025Z,99054.92
2019-01-28T18:30:16.270Z,99060.86
2019-01-28T18:32:43.807Z,99068.16
2019-01-28T18:35:11.335Z,99067.84
2019-01-28T18:37:38.823Z,99066.30
2019-01-28T18:40:08.236Z,99066.17
2019-01-28T18:42:35.741Z,99074.96
2019-01-28T18:45:03.277Z,99081.94
2019-01-28T18:47:30.821Z,99082.48
2019-01-28T18:49:58.690Z,99092.31
2019-01-28T18:52:26.216Z,99104.55
2019-01-28T18:54:53.700Z,99107.08
2019-01-28T18:57:21.227Z,99112.20
2019-01-28T18:59:48.730Z,99109.13
2019-01-28T19:02:16.276Z,99115.92
2019-01-28T19:04:43.766Z,99129.02
2019-01-28T19:07:21.977Z,99131.92
2019-01-28T19:09:49.975Z,99141.75
2019-01-28T19:12:19.163Z,99140.08
2019-01-28T19:14:53.745Z,99148.73
2019-01-28T19:17:23.536Z,99159.11
2019-01-28T19:19:52.937Z,99165.91
2019-01-28T19:22:22.098Z,99171.34
2019-01-28T19:24:49.627Z,99175.42
2019-01-28T19:27:17.148Z,99182.53
2019-01-28T19:29:44.663Z,99184.94
2019-01-28T19:32:12.172Z,99196.13
2019-01-28T19:34:39.688Z,99203.28
2019-01-28T19:37:07.195Z,99202.61
2019-01-28T19:39:34.726Z,99204.47
2019-01-28T19:42:02.222Z,99207.01
2019-01-28T19:44:29.741Z,99212.12
2019-01-28T19:46:57.283Z,99211.27
2019-01-28T19:49:24.839Z,99217.56
2019-01-28T19:51:52.383Z,99226.22
2019-01-28T19:54:19.886Z,99232.19
2019-01-28T19:56:47.373Z,99232.19
2019-01-28T19:59:14.905Z,99239.81
2019-01-28T20:01:42.429Z,99239.99
2019-01-28T20:04:09.950Z,99243.06
2019-01-28T20:06:37.457Z,99246.11
2019-01-28T20:09:06.347Z,99261.06
2019-01-28T20:11:33.874Z,99259.70
2019-01-28T20:14:01.418Z,99264.81
2019-01-28T20:16:28.928Z,99262.42
2019-01-28T20:18:56.599Z,99278.73
2019-01-28T20:21:24.241Z,99283.31
2019-01-28T20:23:51.866Z,99280.09
2019-01-28T20:26:19.389Z,99286.39
2019-01-28T20:28:46.934Z,99285.86
2019-01-28T20:31:14.455Z,99290.97
2019-01-28T20:33:41.982Z,99296.41
2019-01-28T20:36:09.487Z,99297.77
2019-01-28T20:38:37.015Z,99308.32
2019-01-28T20:41:04.525Z,99311.36
2019-01-28T20:43:32.039Z,99311.86
2019-01-28T20:45:59.574Z,99317.66
2019-01-28T20:48:27.078Z,99321.55
2019-01-28T20:50:54.625Z,99319.52
2019-01-28T20:53:22.297Z,99325.45
2019-01-28T20:55:49.817Z,99331.42
2019-01-28T20:58:17.318Z,99326.99
2019-01-28T21:00:44.842Z,99334.47
2019-01-28T21:03:12.372Z,99347.20
2019-01-28T21:05:39.921Z,99353.17
2019-01-28T21:08:07.425Z,99350.78
2019-01-28T21:10:34.928Z,99350.46
2019-01-28T21:13:02.629Z,99361.66
2019-01-28T21:15:30.241Z,99363.02
2019-01-28T21:17:57.729Z,99363.52
2019-01-28T21:20:25.239Z,99366.42
2019-01-28T21:22:52.746Z,99369.49
2019-01-28T21:25:21.889Z,99367.27
2019-01-28T21:27:49.391Z,99375.93
2019-01-28T21:30:24.015Z,99381.02
2019-01-28T21:32:51.566Z,99383.73
2019-01-28T21:35:20.708Z,99388.70
2019-01-28T21:37:49.888Z,99393.97
2019-01-28T21:40:17.414Z,99389.17
2019-01-28T21:42:44.934Z,99394.61
2019-01-28T21:45:13.302Z,99401.77
2019-01-28T21:47:42.456Z,99401.91
2019-01-28T21:50:10.748Z,99400.55
2019-01-28T21:52:38.250Z,99403.27
2019-01-28T21:55:06.646Z,99402.30
2019-01-28T21:57:34.166Z,99403.66
2019-01-28T22:00:01.695Z,99404.13
2019-01-28T22:02:29.197Z,99406.37
2019-01-28T22:04:56.774Z,99411.81
2019-01-28T22:07:24.304Z,99421.33
2019-01-28T22:09:51.820Z,99409.23
2019-01-28T22:12:19.319Z,99418.22
2019-01-28T22:14:46.846Z,99411.09
2019-01-28T22:17:14.388Z,99411.59
2019-01-28T22:19:41.894Z,99411.95
2019-01-28T22:22:09.449Z,99408.55
2019-01-28T22:24:36.936Z,99410.23
2019-01-28T22:27:04.648Z,99422.64
2019-01-28T22:29:32.176Z,99423.50
2019-01-28T22:31:59.672Z,99430.30
2019-01-28T22:34:27.202Z,99434.70
2019-01-28T22:36:54.703Z,99434.38
2019-01-28T22:39:22.216Z,99439.81
2019-01-28T22:41:49.738Z,99439.45
2019-01-28T22:44:17.260Z,99439.81
2019-01-28T22:46:44.754Z,99438.95
2019-01-28T22:49:12.266Z,99446.61
2019-01-28T22:51:39.816Z,99444.56
2019-01-28T22:54:07.348Z,99448.15
2019-01-28T22:56:34.889Z,99462.24
2019-01-28T22:59:02.400Z,99460.87
2019-01-28T23:01:29.928Z,99457.84
2019-01-28T23:03:57.458Z,99461.55
2019-01-28T23:06:24.969Z,99467.84
2019-01-28T23:08:52.462Z,99472.96
2019-01-28T23:11:19.988Z,99478.40
2019-01-28T23:13:47.517Z,99479.23
2019-01-28T23:16:15.166Z,99481.44
2019-01-28T23:18:42.694Z,99476.35
2019-01-28T23:21:10.200Z,99483.30
2019-01-28T23:23:37.723Z,99487.91
2019-01-28T23:26:05.245Z,99487.05
2019-01-28T23:28:32.761Z,99488.41
2019-01-28T23:31:00.252Z,99491.13
2019-01-28T23:33:27.766Z,99500.64
2019-01-28T23:35:55.293Z,99503.54
2019-01-28T23:38:22.803Z,99505.93
2019-01-28T23:40:50.295Z,99512.19
2019-01-28T23:43:17.820Z,99513.37
2019-01-28T23:45:45.323Z,99510.00
2019-01-28T23:48:12.858Z,99512.73
2019-01-28T23:50:40.355Z,99514.25
2019-01-28T23:53:07.876Z,99516.45
2019-01-28T23:55:35.385Z,99509.32
2019-01-28T23:58:10.833Z,99512.21
